createdAt,value
2022-11-04T00:02:02.775Z,5.13
2022-11-04T00:04:29.472Z,4.97
2022-11-04T00:06:56.816Z,5.67
2022-11-04T00:09:24.638Z,5.47
2022-11-04T00:12:09.971Z,5.30
2022-11-04T00:14:36.834Z,5.83
2022-11-04T00:17:22.178Z,5.50
2022-11-04T00:20:08.542Z,5.60
2022-11-04T00:22:53.833Z,5.37
2022-11-04T00:25:39.149Z,5.33
2022-11-04T00:28:25.796Z,5.13
2022-11-04T00:30:56.320Z,5.60
2022-11-04T00:33:25.814Z,5.30
2022-11-04T00:35:53.475Z,6.10
2022-11-04T00:38:20.021Z,6.43
2022-11-04T00:40:46.484Z,6.07
2022-11-04T00:43:12.974Z,5.53
2022-11-04T00:45:40.806Z,5.73
2022-11-04T00:48:07.612Z,5.40
2022-11-04T00:50:34.238Z,5.67
2022-11-04T00:53:01.511Z,5.80
2022-11-04T00:55:28.029Z,5.13
2022-11-04T00:57:54.767Z,5.77
2022-11-04T01:00:21.354Z,5.53
2022-11-04T01:02:47.908Z,5.43
2022-11-04T01:05:14.433Z,5.67
2022-11-04T01:07:43.640Z,5.00
2022-11-04T01:10:10.482Z,5.77
2022-11-04T01:12:36.905Z,5.63
2022-11-04T01:15:03.436Z,5.43
2022-11-04T01:17:29.905Z,5.60
2022-11-04T01:19:56.355Z,5.10
2022-11-04T01:22:22.846Z,5.17
2022-11-04T01:24:49.263Z,6.30
2022-11-04T01:27:15.749Z,5.73
2022-11-04T01:29:42.163Z,5.23
2022-11-04T01:32:08.626Z,5.23
2022-11-04T01:34:39.213Z,5.93
2022-11-04T01:37:08.934Z,6.13
2022-11-04T01:39:35.353Z,5.73
2022-11-04T01:42:01.859Z,5.57
2022-11-04T01:44:46.862Z,6.43
2022-11-04T01:47:33.576Z,5.63
2022-11-04T01:50:04.752Z,5.67
2022-11-04T01:52:40.895Z,5.17
2022-11-04T01:55:10.621Z,5.83
2022-11-04T01:57:44.504Z,5.67
2022-11-04T02:00:12.382Z,5.20
2022-11-04T02:02:44.162Z,6.07
2022-11-04T02:05:10.582Z,5.43
2022-11-04T02:07:37.520Z,5.83
2022-11-04T02:10:04.199Z,6.40
2022-11-04T02:12:49.027Z,5.77
2022-11-04T02:15:16.716Z,5.30
2022-11-04T02:17:56.870Z,5.00
2022-11-04T02:20:26.421Z,5.40
2022-11-04T02:23:04.347Z,4.90
2022-11-04T02:25:45.628Z,5.80
2022-11-04T02:28:27.316Z,5.03
2022-11-04T02:31:01.397Z,5.30
2022-11-04T02:33:27.844Z,6.20
2022-11-04T02:35:59.325Z,5.77
2022-11-04T02:38:30.624Z,5.07
2022-11-04T02:40:59.922Z,5.07
2022-11-04T02:43:41.559Z,5.50
2022-11-04T02:46:23.349Z,5.30
2022-11-04T02:48:55.315Z,4.93
2022-11-04T02:51:27.046Z,5.70
2022-11-04T02:54:02.418Z,5.30
2022-11-04T02:56:29.782Z,6.13
2022-11-04T02:58:58.779Z,6.40
2022-11-04T03:01:27.694Z,6.33
2022-11-04T03:03:58.180Z,8.17
2022-11-04T03:06:25.318Z,7.27
2022-11-04T03:08:52.887Z,8.33
2022-11-04T03:11:22.493Z,8.60
2022-11-04T03:13:59.136Z,9.60
2022-11-04T03:16:29.230Z,9.90
2022-11-04T03:19:03.756Z,9.60
2022-11-04T03:21:33.256Z,8.80
2022-11-04T03:24:00.107Z,7.87
2022-11-04T03:26:32.507Z,8.03
2022-11-04T03:29:14.720Z,7.57
2022-11-04T03:31:48.271Z,7.43
2022-11-04T03:34:14.826Z,7.30
2022-11-04T03:36:41.301Z,7.20
2022-11-04T03:39:07.780Z,7.43
2022-11-04T03:41:46.095Z,8.00
2022-11-04T03:44:12.646Z,8.03
2022-11-04T03:46:39.585Z,7.77
2022-11-04T03:49:07.039Z,7.37
2022-11-04T03:51:33.542Z,7.47
2022-11-04T03:54:00.056Z,7.90
2022-11-04T03:56:26.480Z,7.47
2022-11-04T03:58:55.702Z,6.80
2022-11-04T04:01:34.236Z,6.90
2022-11-04T04:04:12.832Z,6.83
2022-11-04T04:06:39.941Z,6.90
2022-11-04T04:09:12.170Z,7.10
2022-11-04T04:11:44.632Z,6.80
2022-11-04T04:14:37.663Z,7.40
2022-11-04T04:17:05.719Z,7.13
2022-11-04T04:19:33.450Z,7.63
2022-11-04T04:22:05.141Z,7.90
2022-11-04T04:24:55.453Z,8.43
2022-11-04T04:27:32.069Z,8.30
2022-11-04T04:30:17.236Z,8.27
2022-11-04T04:32:48.661Z,7.13
2022-11-04T04:35:34.191Z,7.13
2022-11-04T04:38:21.582Z,7.00
2022-11-04T04:41:10.128Z,7.70
2022-11-04T04:43:57.057Z,7.90
2022-11-04T04:46:24.181Z,8.90
2022-11-04T04:48:50.670Z,9.90
2022-11-04T04:51:17.298Z,9.53
2022-11-04T04:53:43.708Z,9.60
2022-11-04T04:56:10.138Z,9.53
2022-11-04T04:58:36.552Z,9.67
2022-11-04T05:01:03.998Z,10.20
2022-11-04T05:03:30.478Z,10.27
2022-11-04T05:05:59.178Z,11.60
2022-11-04T05:08:25.572Z,11.57
2022-11-04T05:10:52.006Z,12.93
2022-11-04T05:13:28.444Z,11.00
2022-11-04T05:15:55.005Z,10.60
2022-11-04T05:18:21.491Z,10.33
2022-11-04T05:20:47.876Z,11.30
2022-11-04T05:23:14.832Z,11.00
2022-11-04T05:25:41.599Z,11.60
2022-11-04T05:28:08.661Z,11.20
2022-11-04T05:30:35.441Z,11.27
2022-11-04T05:33:04.852Z,11.03
2022-11-04T05:35:32.083Z,12.83
2022-11-04T05:37:58.561Z,13.57
2022-11-04T05:40:25.365Z,14.70
2022-11-04T05:42:52.007Z,15.80
2022-11-04T05:45:18.465Z,14.93
2022-11-04T05:47:44.943Z,16.83
2022-11-04T05:50:11.397Z,14.43
2022-11-04T05:52:37.962Z,13.70
2022-11-04T05:55:04.502Z,13.97
2022-11-04T05:57:31.008Z,14.97
2022-11-04T05:59:57.429Z,15.47
2022-11-04T06:02:23.913Z,15.57
2022-11-04T06:04:50.373Z,17.63
2022-11-04T06:07:16.765Z,16.97
2022-11-04T06:09:43.147Z,17.10
2022-11-04T06:12:10.374Z,19.17
2022-11-04T06:14:37.022Z,19.20
2022-11-04T06:17:03.921Z,17.27
2022-11-04T06:19:30.392Z,16.60
2022-11-04T06:21:56.947Z,17.50
2022-11-04T06:24:23.418Z,18.30
2022-11-04T06:26:49.875Z,16.70
2022-11-04T06:29:16.339Z,15.40
2022-11-04T06:31:42.833Z,16.20
2022-11-04T06:34:09.300Z,16.27
2022-11-04T06:36:36.214Z,14.57
2022-11-04T06:39:05.025Z,13.80
2022-11-04T06:41:31.978Z,14.90
2022-11-04T06:43:58.414Z,14.00
2022-11-04T06:46:33.934Z,14.07
2022-11-04T06:49:00.385Z,14.50
2022-11-04T06:51:27.048Z,16.30
2022-11-04T06:53:53.707Z,15.40
2022-11-04T06:56:20.123Z,18.37
2022-11-04T06:58:53.384Z,18.13
2022-11-04T07:01:22.410Z,18.67
2022-11-04T07:03:50.410Z,18.03
2022-11-04T07:06:16.785Z,17.17
2022-11-04T07:08:43.254Z,18.80
2022-11-04T07:11:09.664Z,18.67
2022-11-04T07:13:36.171Z,18.37
2022-11-04T07:16:06.230Z,18.27
2022-11-04T07:18:32.656Z,18.23
2022-11-04T07:20:59.146Z,17.50
2022-11-04T07:23:25.614Z,17.60
2022-11-04T07:25:54.230Z,16.83
2022-11-04T07:28:20.880Z,16.50
2022-11-04T07:30:47.355Z,16.63
2022-11-04T07:33:13.761Z,16.53
2022-11-04T07:35:40.235Z,17.03
2022-11-04T07:38:06.973Z,16.33
2022-11-04T07:40:34.502Z,17.40
2022-11-04T07:43:01.508Z,17.17
2022-11-04T07:45:36.213Z,18.80
2022-11-04T07:48:02.749Z,19.00
2022-11-04T07:50:29.268Z,20.73
2022-11-04T07:52:55.761Z,21.60
2022-11-04T07:55:22.356Z,22.03
2022-11-04T07:57:48.790Z,21.67
2022-11-04T08:00:16.391Z,21.93
2022-11-04T08:02:44.537Z,20.87
2022-11-04T08:05:12.044Z,21.10
2022-11-04T08:07:38.539Z,21.37
2022-11-04T08:10:05.570Z,19.27
2022-11-04T08:12:32.417Z,19.60
2022-11-04T08:14:59.363Z,18.87
2022-11-04T08:17:26.311Z,18.83
2022-11-04T08:19:52.846Z,19.40
2022-11-04T08:22:19.247Z,19.07
2022-11-04T08:24:47.312Z,18.60
2022-11-04T08:27:14.313Z,17.93
2022-11-04T08:29:40.765Z,16.80
2022-11-04T08:32:07.614Z,17.30
2022-11-04T08:34:34.158Z,15.80
2022-11-04T08:37:00.611Z,15.73
2022-11-04T08:39:27.117Z,15.70
2022-11-04T08:41:53.884Z,14.83
2022-11-04T08:44:20.723Z,13.87
2022-11-04T08:46:47.285Z,13.30
2022-11-04T08:49:19.502Z,13.27
2022-11-04T08:51:49.646Z,13.07
2022-11-04T08:54:16.322Z,11.17
2022-11-04T08:56:42.753Z,11.40
2022-11-04T08:59:10.629Z,11.07
2022-11-04T09:01:37.845Z,10.10
2022-11-04T09:04:05.458Z,10.83
2022-11-04T09:06:37.133Z,9.67
2022-11-04T09:09:04.813Z,9.53
2022-11-04T09:11:36.711Z,9.47
2022-11-04T09:14:03.642Z,9.00
2022-11-04T09:16:30.805Z,8.47
2022-11-04T09:18:58.126Z,8.43
2022-11-04T09:21:25.280Z,9.03
2022-11-04T09:23:51.730Z,9.33
2022-11-04T09:26:18.548Z,8.57
2022-11-04T09:28:45.150Z,8.87
2022-11-04T09:31:13.491Z,8.43
2022-11-04T09:33:39.976Z,7.57
2022-11-04T09:36:08.359Z,7.37
2022-11-04T09:38:35.657Z,6.73
2022-11-04T09:41:02.124Z,6.17
2022-11-04T09:43:32.786Z,7.30
2022-11-04T09:45:59.903Z,6.00
2022-11-04T09:48:38.660Z,5.50
2022-11-04T09:51:06.529Z,5.70
2022-11-04T09:53:33.060Z,6.20
2022-11-04T09:56:08.700Z,5.70
2022-11-04T09:58:37.445Z,5.80
2022-11-04T10:01:19.354Z,6.30
2022-11-04T10:04:04.893Z,6.83
2022-11-04T10:06:46.337Z,6.33
2022-11-04T10:09:22.488Z,5.70
2022-11-04T10:12:01.857Z,6.33
2022-11-04T10:14:41.499Z,5.30
2022-11-04T10:17:07.890Z,4.93
2022-11-04T10:20:12.673Z,5.20
2022-11-04T10:22:58.472Z,5.00
2022-11-04T10:25:28.522Z,4.93
2022-11-04T10:27:55.158Z,5.57
2022-11-04T10:30:23.214Z,5.10
2022-11-04T10:33:00.009Z,4.63
2022-11-04T10:35:32.115Z,5.20
2022-11-04T10:38:01.965Z,4.40
2022-11-04T10:40:32.212Z,4.23
2022-11-04T10:42:59.957Z,4.70
2022-11-04T10:45:31.145Z,4.30
2022-11-04T10:48:05.796Z,4.03
2022-11-04T10:50:37.609Z,4.27
2022-11-04T10:53:12.638Z,4.43
2022-11-04T10:56:02.404Z,4.20
2022-11-04T10:58:34.631Z,4.00
2022-11-04T11:01:21.160Z,4.40
2022-11-04T11:03:47.696Z,4.23
2022-11-04T11:06:16.713Z,3.97
2022-11-04T11:08:43.966Z,4.80
2022-11-04T11:11:11.237Z,4.67
2022-11-04T11:13:39.457Z,4.37
2022-11-04T11:16:06.064Z,4.60
2022-11-04T11:18:32.588Z,4.60
2022-11-04T11:21:07.918Z,4.40
2022-11-04T11:23:36.287Z,4.83
2022-11-04T11:26:03.761Z,4.37
2022-11-04T11:28:30.909Z,4.30
2022-11-04T11:31:04.256Z,4.23
2022-11-04T11:33:35.600Z,4.20
2022-11-04T11:36:31.316Z,3.80
2022-11-04T11:39:16.392Z,3.80
2022-11-04T11:42:01.965Z,8.63
2022-11-04T11:44:37.040Z,4.70
2022-11-04T11:47:07.885Z,4.40
2022-11-04T11:49:35.947Z,4.80
2022-11-04T11:52:21.071Z,4.47
2022-11-04T11:54:49.267Z,4.50
2022-11-04T11:57:25.690Z,4.70
2022-11-04T12:02:40.516Z,5.03
2022-11-04T12:11:03.278Z,4.13
2022-11-04T12:13:32.541Z,4.93
2022-11-04T12:16:11.693Z,5.30
2022-11-04T12:18:56.950Z,5.30
2022-11-04T12:21:31.531Z,5.67
2022-11-04T12:24:02.077Z,6.93
2022-11-04T12:26:49.951Z,6.37
2022-11-04T12:29:36.085Z,5.20
2022-11-04T12:32:21.400Z,6.40
2022-11-04T12:34:50.627Z,5.70
2022-11-04T12:37:43.254Z,5.00
2022-11-04T12:40:21.599Z,4.63
2022-11-04T12:42:54.121Z,3.80
2022-11-04T12:45:25.082Z,4.30
2022-11-04T12:47:55.378Z,6.13
2022-11-04T12:50:42.685Z,5.60
2022-11-04T12:53:12.440Z,12.33
2022-11-04T12:55:44.006Z,8.20
2022-11-04T12:58:22.989Z,5.50
2022-11-04T13:00:59.280Z,14.13
2022-11-04T13:03:30.232Z,13.87
2022-11-04T13:06:02.930Z,14.03
2022-11-04T13:08:36.130Z,6.10
2022-11-04T13:11:22.880Z,7.60
2022-11-04T13:14:01.772Z,6.97
2022-11-04T13:16:30.121Z,7.87
2022-11-04T13:18:57.040Z,6.87
2022-11-04T13:21:25.716Z,6.90
2022-11-04T13:23:54.838Z,6.90
2022-11-04T13:26:21.242Z,7.30
2022-11-04T13:28:56.180Z,6.57
2022-11-04T13:31:27.795Z,6.60
2022-11-04T13:33:54.463Z,6.70
2022-11-04T13:36:20.930Z,12.77
2022-11-04T13:38:53.503Z,8.07
2022-11-04T13:41:25.839Z,8.20
2022-11-04T13:43:53.548Z,8.57
2022-11-04T13:46:23.872Z,9.23
2022-11-04T13:48:56.454Z,8.53
2022-11-04T13:51:23.274Z,12.23
2022-11-04T13:53:51.897Z,11.10
2022-11-04T13:56:33.279Z,9.33
2022-11-04T13:59:02.641Z,9.07
2022-11-04T14:01:30.672Z,12.63
2022-11-04T14:04:26.833Z,12.57
2022-11-04T14:07:00.727Z,12.53
2022-11-04T14:09:33.495Z,9.60
2022-11-04T14:12:17.056Z,9.50
2022-11-04T14:14:45.350Z,10.37
2022-11-04T14:17:30.694Z,9.73
2022-11-04T14:19:57.210Z,12.00
2022-11-04T14:22:30.295Z,16.13
2022-11-04T14:24:58.326Z,12.47
2022-11-04T14:27:45.027Z,8.50
2022-11-04T14:30:34.875Z,8.13
2022-11-04T14:33:03.682Z,8.37
2022-11-04T14:35:30.919Z,7.37
2022-11-04T14:37:59.698Z,7.10
2022-11-04T14:40:28.743Z,7.47
2022-11-04T14:42:56.136Z,6.30
2022-11-04T14:45:24.666Z,6.80
2022-11-04T14:47:53.656Z,6.80
2022-11-04T14:50:23.228Z,8.00
2022-11-04T14:53:12.383Z,7.47
2022-11-04T14:55:39.021Z,10.73
2022-11-04T14:58:25.028Z,7.03
2022-11-04T15:00:53.471Z,7.27
2022-11-04T15:06:11.592Z,6.70
2022-11-04T15:08:40.811Z,6.67
2022-11-04T15:11:16.835Z,6.53
2022-11-04T15:13:43.763Z,6.40
2022-11-04T15:16:29.481Z,7.00
2022-11-04T15:18:57.296Z,7.23
2022-11-04T15:21:23.954Z,7.53
2022-11-04T15:23:52.014Z,6.97
2022-11-04T15:26:18.422Z,7.73
2022-11-04T15:28:46.881Z,8.93
2022-11-04T15:31:13.238Z,8.43
2022-11-04T15:33:44.346Z,9.30
2022-11-04T15:36:17.578Z,8.77
2022-11-04T15:38:50.411Z,10.13
2022-11-04T15:41:38.671Z,10.77
2022-11-04T15:44:07.250Z,9.63
2022-11-04T15:46:33.726Z,11.03
2022-11-04T15:49:01.624Z,9.87
2022-11-04T15:51:30.016Z,12.07
2022-11-04T15:54:05.403Z,12.87
2022-11-04T15:56:39.606Z,11.47
2022-11-04T15:59:08.936Z,12.90
2022-11-04T16:01:43.264Z,15.67
2022-11-04T16:04:11.750Z,14.60
2022-11-04T16:06:39.665Z,14.50
2022-11-04T16:09:09.092Z,13.13
2022-11-04T16:11:35.791Z,12.70
2022-11-04T16:14:19.645Z,11.93
2022-11-04T16:16:49.383Z,14.90
2022-11-04T16:19:21.904Z,12.37
2022-11-04T16:21:57.984Z,11.23
2022-11-04T16:24:26.351Z,12.00
2022-11-04T16:26:55.702Z,11.77
2022-11-04T16:29:24.772Z,11.40
2022-11-04T16:32:06.453Z,11.77
2022-11-04T16:34:32.943Z,11.30
2022-11-04T16:36:59.797Z,12.13
2022-11-04T16:39:26.464Z,11.53
2022-11-04T16:41:52.860Z,11.80
2022-11-04T16:44:20.520Z,10.40
2022-11-04T16:46:47.032Z,10.73
2022-11-04T16:49:18.388Z,10.07
2022-11-04T16:51:45.704Z,10.87
2022-11-04T16:54:12.208Z,9.80
2022-11-04T16:56:38.877Z,9.57
2022-11-04T16:59:06.397Z,10.57
2022-11-04T17:01:34.075Z,9.87
2022-11-04T17:04:01.451Z,10.37
2022-11-04T17:06:27.838Z,10.03
2022-11-04T17:08:55.571Z,10.67
2022-11-04T17:11:22.033Z,10.07
2022-11-04T17:13:48.452Z,9.60
2022-11-04T17:16:15.212Z,9.37
2022-11-04T17:18:41.706Z,12.20
2022-11-04T17:21:09.690Z,12.27
2022-11-04T17:23:36.309Z,12.60
2022-11-04T17:26:03.270Z,14.53
2022-11-04T17:28:31.583Z,10.80
2022-11-04T17:30:58.116Z,10.47
2022-11-04T17:33:24.693Z,9.77
2022-11-04T17:35:51.422Z,9.00
2022-11-04T17:38:18.516Z,10.13
2022-11-04T17:41:03.926Z,10.37
2022-11-04T17:43:49.267Z,9.77
2022-11-04T17:46:34.321Z,9.67
2022-11-04T17:49:14.375Z,10.57
2022-11-04T17:51:42.967Z,9.87
2022-11-04T17:54:09.509Z,9.37
2022-11-04T17:56:37.364Z,9.70
2022-11-04T17:59:04.259Z,9.50
2022-11-04T18:01:31.542Z,9.33
2022-11-04T18:03:58.233Z,9.43
2022-11-04T18:06:25.597Z,9.33
2022-11-04T18:08:53.864Z,10.07
2022-11-04T18:11:50.064Z,9.83
2022-11-04T18:14:17.551Z,9.67
2022-11-04T18:16:45.698Z,10.10
2022-11-04T18:19:12.234Z,9.60
2022-11-04T18:21:38.662Z,9.87
2022-11-04T18:24:05.308Z,10.03
2022-11-04T18:26:31.736Z,12.30
2022-11-04T18:28:58.445Z,10.13
2022-11-04T18:31:29.355Z,10.77
2022-11-04T18:33:58.178Z,10.90
2022-11-04T18:36:24.565Z,11.27
2022-11-04T18:38:51.069Z,10.33
2022-11-04T18:41:17.578Z,9.43
2022-11-04T18:43:44.075Z,14.27
2022-11-04T18:46:11.937Z,10.33
2022-11-04T18:48:38.389Z,12.80
2022-11-04T18:51:06.087Z,11.50
2022-11-04T18:53:32.473Z,10.17
2022-11-04T18:56:05.986Z,9.73
2022-11-04T18:58:33.352Z,10.10
2022-11-04T19:01:00.520Z,9.87
2022-11-04T19:03:26.963Z,9.73
2022-11-04T19:05:53.426Z,9.10
2022-11-04T19:08:19.826Z,9.90
2022-11-04T19:11:00.120Z,10.53
2022-11-04T19:13:27.474Z,10.73
2022-11-04T19:15:54.128Z,10.20
2022-11-04T19:18:20.685Z,9.73
2022-11-04T19:20:47.200Z,9.13
2022-11-04T19:23:13.731Z,10.10
2022-11-04T19:25:41.353Z,9.70
2022-11-04T19:28:32.867Z,10.10
2022-11-04T19:31:01.976Z,10.27
2022-11-04T19:33:29.621Z,10.43
2022-11-04T19:35:56.267Z,10.40
2022-11-04T19:38:24.382Z,10.40
2022-11-04T19:40:52.188Z,10.27
2022-11-04T19:43:19.564Z,10.23
2022-11-04T19:45:47.083Z,9.50
2022-11-04T19:48:13.827Z,10.00
2022-11-04T19:50:41.897Z,10.17
2022-11-04T19:53:08.716Z,9.80
2022-11-04T19:55:35.593Z,9.87
2022-11-04T19:58:02.372Z,9.17
2022-11-04T20:00:32.758Z,9.47
2022-11-04T20:02:59.245Z,9.17
2022-11-04T20:05:26.147Z,9.30
2022-11-04T20:07:54.917Z,9.27
2022-11-04T20:10:22.132Z,9.67
2022-11-04T20:13:07.105Z,9.73
2022-11-04T20:15:33.559Z,9.70
2022-11-04T20:18:00.496Z,9.40
2022-11-04T20:20:27.000Z,9.90
2022-11-04T20:22:53.438Z,9.70
2022-11-04T20:25:19.866Z,9.90
2022-11-04T20:27:46.452Z,9.70
2022-11-04T20:30:13.514Z,9.20
2022-11-04T20:32:40.008Z,9.63
2022-11-04T20:35:07.200Z,10.00
2022-11-04T20:37:33.721Z,10.60
2022-11-04T20:40:00.373Z,10.10
2022-11-04T20:42:26.912Z,9.87
2022-11-04T20:44:53.839Z,9.97
2022-11-04T20:47:20.303Z,11.13
2022-11-04T20:49:47.054Z,10.30
2022-11-04T20:52:13.500Z,9.93
2022-11-04T20:54:39.921Z,10.40
2022-11-04T20:57:06.412Z,10.17
2022-11-04T20:59:33.033Z,10.40
2022-11-04T21:01:59.753Z,11.33
2022-11-04T21:04:27.178Z,10.80
2022-11-04T21:06:55.971Z,10.17
2022-11-04T21:09:22.438Z,9.30
2022-11-04T21:11:50.178Z,10.13
2022-11-04T21:14:19.432Z,11.10
2022-11-04T21:16:46.487Z,9.43
2022-11-04T21:19:13.403Z,10.30
2022-11-04T21:21:41.128Z,13.57
2022-11-04T21:24:07.680Z,10.43
2022-11-04T21:26:34.885Z,11.50
2022-11-04T21:29:03.108Z,12.35
2022-11-04T21:31:30.665Z,11.23
2022-11-04T21:33:57.637Z,10.20
2022-11-04T21:36:24.178Z,11.00
2022-11-04T21:38:50.635Z,10.23
2022-11-04T21:41:19.069Z,10.23
2022-11-04T21:43:45.488Z,9.83
2022-11-04T21:46:13.798Z,10.03
2022-11-04T21:48:41.191Z,10.53
2022-11-04T21:51:09.445Z,10.33
2022-11-04T21:53:36.182Z,9.97
2022-11-04T21:56:13.099Z,10.33
2022-11-04T21:58:39.850Z,10.53
2022-11-04T22:01:07.343Z,10.07
2022-11-04T22:03:34.179Z,11.00
2022-11-04T22:06:02.053Z,10.07
2022-11-04T22:08:29.202Z,10.37
2022-11-04T22:10:56.110Z,11.33
2022-11-04T22:13:22.976Z,10.93
2022-11-04T22:15:58.200Z,10.43
2022-11-04T22:18:28.666Z,10.30
2022-11-04T22:20:55.407Z,10.80
2022-11-04T22:23:22.264Z,11.30
2022-11-04T22:25:50.352Z,11.00
2022-11-04T22:28:17.205Z,10.47
2022-11-04T22:30:43.782Z,11.63
2022-11-04T22:33:11.016Z,10.60
2022-11-04T22:35:37.650Z,10.93
2022-11-04T22:38:04.207Z,10.63
2022-11-04T22:40:30.573Z,11.07
2022-11-04T22:42:57.068Z,11.30
2022-11-04T22:45:23.472Z,10.83
2022-11-04T22:47:50.206Z,10.47
2022-11-04T22:50:17.429Z,11.20
2022-11-04T22:52:44.023Z,10.60
2022-11-04T22:55:11.678Z,11.30
2022-11-04T22:57:38.269Z,11.23
2022-11-04T23:00:06.008Z,10.87
2022-11-04T23:02:36.923Z,11.03
2022-11-04T23:05:04.085Z,11.53
2022-11-04T23:07:30.835Z,11.67
2022-11-04T23:10:15.806Z,10.83
2022-11-04T23:13:00.725Z,11.07
2022-11-04T23:15:45.541Z,11.00
2022-11-04T23:18:31.520Z,11.23
2022-11-04T23:21:16.892Z,10.90
2022-11-04T23:24:01.782Z,10.47
2022-11-04T23:26:28.608Z,11.37
2022-11-04T23:29:13.493Z,11.43
2022-11-04T23:31:39.938Z,11.30
2022-11-04T23:34:24.915Z,11.27
2022-11-04T23:37:09.886Z,11.23
2022-11-04T23:39:36.385Z,11.97
2022-11-04T23:42:18.201Z,11.20
2022-11-04T23:45:04.090Z,10.90
2022-11-04T23:47:49.748Z,10.73
2022-11-04T23:50:35.184Z,10.53
2022-11-04T23:53:21.538Z,10.03
2022-11-04T23:56:07.016Z,10.77
2022-11-04T23:58:52.119Z,9.73
